Time;durP1;ratioP1;P1;durP2;ratioP2;P2;SDS_P1;SDS_P2;PMS_P1;PMS_P2;Temp;Humidity;BMP_temperature;BMP_pressure;BME280_temperature;BME280_humidity;BME280_pressure;Samples;Min_cycle;Max_cycle;Signal;HPM_P1;HPM_P2
2023/08/21 00:01:52;;;;;;;16.13;12.55;;;;;;;;;;4937374;29;20471;-80
2023/08/21 00:04:19;;;;;;;26.20;13.05;;;;;;;;;;4920009;29;20383;-80
2023/08/21 00:06:45;;;;;;;20.13;14.05;;;;;;;;;;4919756;29;20212;-82
2023/08/21 00:09:11;;;;;;;19.00;13.25;;;;;;;;;;4919912;29;20038;-81
2023/08/21 00:11:37;;;;;;;21.33;13.27;;;;;;;;;;4919941;29;20051;-82
2023/08/21 00:14:03;;;;;;;19.67;13.52;;;;;;;;;;4919606;29;20032;-82
2023/08/21 00:16:30;;;;;;;19.65;13.90;;;;;;;;;;4920009;29;20031;-80
2023/08/21 00:18:56;;;;;;;18.95;13.32;;;;;;;;;;4936929;29;20105;-81
2023/08/21 00:21:22;;;;;;;19.33;13.60;;;24.30;99.90;;;;;;4919144;29;20470;-80
2023/08/21 00:23:47;;;;;;;19.58;13.63;;;24.20;99.90;;;;;;4936854;29;20052;-80
2023/08/21 00:26:13;;;;;;;20.77;14.63;;;24.20;99.90;;;;;;4936674;29;20409;-81
2023/08/21 00:28:39;;;;;;;22.42;14.55;;;24.20;99.90;;;;;;4919271;29;20447;-79
2023/08/21 00:31:06;;;;;;;22.88;13.77;;;24.20;99.90;;;;;;4919227;29;20044;-80
2023/08/21 00:33:32;;;;;;;19.13;13.73;;;24.20;99.90;;;;;;4936523;29;20031;-79
2023/08/21 00:35:58;;;;;;;18.92;14.48;;;24.20;99.90;;;;;;4919323;29;20062;-80
2023/08/21 00:38:24;;;;;;;18.70;13.38;;;24.20;99.90;;;;;;4919588;29;20051;-81
2023/08/21 00:40:50;;;;;;;20.83;13.15;;;24.20;99.90;;;;;;4919633;29;20036;-80
2023/08/21 00:43:16;;;;;;;18.38;12.82;;;24.10;99.90;;;;;;4919108;29;20462;-79
2023/08/21 00:45:43;;;;;;;19.15;13.95;;;;;;;;;;4919546;29;20042;-80
2023/08/21 00:48:10;;;;;;;16.42;12.30;;;24.20;99.90;;;;;;4919143;29;20031;-80
2023/08/21 00:50:36;;;;;;;23.17;14.20;;;24.20;99.90;;;;;;4936332;29;20036;-79
2023/08/21 00:53:05;;;;;;;20.48;14.20;;;24.00;99.90;;;;;;4936149;29;20429;-81
2023/08/21 00:55:32;;;;;;;24.63;12.80;;;24.10;99.90;;;;;;4935896;29;20028;-81
2023/08/21 00:57:58;;;;;;;17.40;13.35;;;24.00;99.90;;;;;;4936445;29;20035;-79
2023/08/21 01:00:26;;;;;;;21.42;13.48;;;24.00;99.90;;;;;;4936416;29;20055;-79
2023/08/21 01:02:51;;;;;;;18.77;12.98;;;24.00;99.90;;;;;;4936428;29;20035;-80
2023/08/21 01:05:21;;;;;;;16.80;12.32;;;24.00;99.90;;;;;;4919263;29;20023;-79
2023/08/21 01:07:57;;;;;;;18.67;13.57;;;24.00;99.90;;;;;;4919423;29;20042;-78
2023/08/21 01:10:44;;;;;;;17.95;12.85;;;24.00;99.90;;;;;;4936272;29;20387;-81
2023/08/21 01:13:21;;;;;;;20.23;13.38;;;24.00;99.90;;;;;;4936385;29;20028;-80
2023/08/21 01:15:50;;;;;;;17.45;13.77;;;23.90;99.90;;;;;;4936438;29;20039;-79
2023/08/21 01:24:37;;;;;;;17.88;13.25;;;23.70;99.90;;;;;;5111176;27;20862;-80
2023/08/21 01:27:02;;;;;;;20.48;12.80;;;23.60;99.90;;;;;;5111677;28;20243;-81
2023/08/21 01:29:29;;;;;;;27.88;13.65;;;23.60;99.90;;;;;;5110637;28;20073;-81
2023/08/21 01:32:19;;;;;;;19.25;13.35;;;23.70;99.90;;;;;;5110060;28;20028;-81
2023/08/21 01:34:47;;;;;;;23.30;13.27;;;23.60;99.90;;;;;;5110570;28;20043;-80
2023/08/21 01:37:13;;;;;;;18.60;12.35;;;23.60;99.90;;;;;;5109921;28;20031;-80
2023/08/21 01:39:39;;;;;;;19.70;13.70;;;23.60;99.90;;;;;;5110503;28;20020;-79
2023/08/21 01:42:05;;;;;;;17.95;13.45;;;23.60;99.90;;;;;;5110091;28;20537;-81
2023/08/21 01:44:31;;;;;;;18.98;13.65;;;23.60;99.90;;;;;;5109755;28;20028;-80
2023/08/21 01:46:57;;;;;;;20.30;13.15;;;23.70;99.90;;;;;;5109952;28;20024;-81
2023/08/21 01:49:22;;;;;;;21.40;13.10;;;23.70;99.90;;;;;;5110044;28;20036;-80
2023/08/21 01:51:48;;;;;;;18.90;13.02;;;23.70;99.90;;;;;;5110958;28;20031;-81
2023/08/21 01:54:14;;;;;;;24.85;13.07;;;23.60;99.90;;;;;;5111208;28;20124;-81
2023/08/21 01:56:40;;;;;;;19.35;13.48;;;23.60;99.90;;;;;;5104661;28;20392;-82
2023/08/21 01:59:06;;;;;;;17.25;13.32;;;23.70;99.90;;;;;;5109535;28;20020;-82
2023/08/21 02:01:32;;;;;;;22.95;13.57;;;23.60;99.90;;;;;;5109861;28;20020;-82
2023/08/21 02:03:58;;;;;;;20.02;13.50;;;23.60;99.90;;;;;;5109724;28;20059;-80
2023/08/21 02:06:24;;;;;;;29.40;14.15;;;23.60;99.90;;;;;;5110873;28;20448;-80
2023/08/21 02:08:50;;;;;;;20.33;13.52;;;23.70;99.90;;;;;;5109644;28;20411;-80
2023/08/21 02:11:15;;;;;;;17.63;12.98;;;23.70;99.90;;;;;;5109931;28;20043;-81
2023/08/21 02:13:41;;;;;;;18.35;13.13;;;23.60;99.90;;;;;;5109475;28;20396;-82
2023/08/21 02:16:07;;;;;;;21.63;13.52;;;23.60;99.90;;;;;;5110541;28;20038;-81
2023/08/21 02:18:33;;;;;;;24.83;14.05;;;23.60;99.90;;;;;;5110624;28;20024;-82
2023/08/21 02:21:01;;;;;;;19.17;14.02;;;23.60;99.90;;;;;;5109235;28;20024;-82
2023/08/21 02:23:28;;;;;;;17.88;13.02;;;23.60;99.90;;;;;;5109030;28;20489;-81
2023/08/21 02:25:54;;;;;;;22.13;13.40;;;23.60;99.90;;;;;;5110980;28;20469;-81
2023/08/21 02:28:20;;;;;;;19.00;13.15;;;23.60;99.90;;;;;;5108966;28;20023;-81
2023/08/21 02:30:46;;;;;;;22.42;13.00;;;23.60;99.90;;;;;;5109278;28;20024;-79
2023/08/21 02:33:12;;;;;;;21.98;13.18;;;23.60;99.90;;;;;;5108869;28;20063;-83
2023/08/21 02:35:38;;;;;;;24.75;14.07;;;23.50;99.90;;;;;;5097180;28;20047;-81
2023/08/21 02:38:04;;;;;;;19.73;13.80;;;23.40;99.90;;;;;;5094810;28;20446;-80
2023/08/21 02:40:30;;;;;;;20.58;13.93;;;23.40;99.90;;;;;;5096574;28;20024;-83
2023/08/21 02:42:56;;;;;;;21.40;13.82;;;23.40;99.90;;;;;;5095411;28;20028;-81
2023/08/21 02:45:22;;;;;;;25.80;14.10;;;23.50;99.90;;;;;;5095296;28;20417;-82
2023/08/21 02:47:48;;;;;;;18.00;13.32;;;23.40;99.90;;;;;;5096476;28;20056;-82
2023/08/21 02:50:14;;;;;;;17.90;12.85;;;23.40;99.90;;;;;;5095306;28;20050;-81
2023/08/21 02:52:39;;;;;;;20.58;13.20;;;23.40;99.90;;;;;;5095291;28;20054;-81
2023/08/21 02:55:06;;;;;;;17.27;13.00;;;23.50;99.90;;;;;;5094814;28;20023;-81
2023/08/21 02:57:32;;;;;;;20.95;12.98;;;23.50;99.90;;;;;;5095168;28;20032;-82
2023/08/21 02:59:58;;;;;;;21.70;13.80;;;23.30;99.90;;;;;;5096205;28;20020;-82
2023/08/21 03:02:23;;;;;;;21.20;14.05;;;23.30;99.90;;;;;;5095582;28;20039;-80
2023/08/21 03:04:50;;;;;;;18.45;13.23;;;23.30;99.90;;;;;;5096042;28;20035;-82
2023/08/21 03:07:16;;;;;;;18.67;12.98;;;23.30;99.90;;;;;;5096256;28;20031;-81
2023/08/21 03:09:42;;;;;;;16.67;12.23;;;23.30;99.90;;;;;;5094649;28;20394;-80
2023/08/21 03:12:08;;;;;;;20.33;13.77;;;23.30;99.90;;;;;;5095909;28;20085;-81
2023/08/21 03:14:34;;;;;;;16.45;12.07;;;23.30;99.90;;;;;;5096024;28;20047;-82
2023/08/21 03:17:00;;;;;;;17.35;12.82;;;23.30;99.90;;;;;;5094655;28;20458;-81
2023/08/21 03:19:26;;;;;;;21.63;13.77;;;23.40;99.90;;;;;;5096110;28;20031;-83
2023/08/21 03:21:51;;;;;;;19.90;13.35;;;23.40;99.90;;;;;;5096152;28;20032;-81
2023/08/21 03:24:17;;;;;;;22.52;13.48;;;23.40;99.90;;;;;;5095732;28;20043;-81
2023/08/21 03:26:44;;;;;;;23.33;12.15;;;23.40;99.90;;;;;;5094807;28;20036;-81
2023/08/21 03:29:10;;;;;;;20.05;13.00;;;23.40;99.90;;;;;;5094231;28;20527;-81
2023/08/21 03:31:36;;;;;;;17.98;12.68;;;23.40;99.90;;;;;;5094545;28;20020;-81
2023/08/21 03:34:02;;;;;;;27.70;12.57;;;23.40;99.90;;;;;;5094332;28;20427;-81
2023/08/21 03:36:31;;;;;;;17.42;13.02;;;23.40;99.90;;;;;;5095357;28;20073;-80
2023/08/21 03:39:01;;;;;;;23.58;13.10;;;23.30;99.90;;;;;;5095317;28;20024;-81
2023/08/21 03:41:27;;;;;;;14.65;12.23;;;23.30;99.90;;;;;;5094174;28;20362;-80
2023/08/21 03:43:53;;;;;;;19.90;14.10;;;23.30;99.90;;;;;;5093887;28;20459;-83
2023/08/21 03:46:19;;;;;;;22.35;12.30;;;23.30;99.90;;;;;;5093229;28;20115;-83
2023/08/21 03:48:45;;;;;;;22.73;12.95;;;23.30;99.90;;;;;;5095416;28;20099;-84
2023/08/21 03:51:11;;;;;;;20.35;13.50;;;23.30;99.90;;;;;;5093831;28;20016;-81
2023/08/21 03:53:36;;;;;;;23.23;14.27;;;23.30;99.90;;;;;;5094208;28;20046;-80
2023/08/21 03:56:02;;;;;;;18.13;12.73;;;23.30;99.90;;;;;;5095292;28;20038;-80
2023/08/21 03:58:28;;;;;;;21.95;13.00;;;23.30;99.90;;;;;;5093563;28;20059;-78
2023/08/21 04:00:54;;;;;;;21.13;13.05;;;23.30;99.90;;;;;;5095260;28;20028;-79
2023/08/21 04:03:20;;;;;;;17.63;12.43;;;23.30;99.90;;;;;;5094703;28;20032;-79
2023/08/21 04:05:46;;;;;;;24.23;14.23;;;23.30;99.90;;;;;;5094866;28;20099;-81
2023/08/21 04:08:12;;;;;;;20.10;13.68;;;23.20;99.90;;;;;;5094817;28;20165;-79
2023/08/21 04:10:41;;;;;;;23.02;13.23;;;23.20;99.90;;;;;;5095125;28;20059;-79
2023/08/21 04:13:07;;;;;;;17.42;13.18;;;23.20;99.90;;;;;;5094781;28;20031;-79
2023/08/21 04:15:37;;;;;;;20.45;13.88;;;23.10;99.90;;;;;;5093646;28;20115;-79
2023/08/21 04:18:03;;;;;;;19.65;13.15;;;23.10;99.90;;;;;;5094873;28;20032;-79
2023/08/21 04:20:29;;;;;;;24.90;15.10;;;23.20;99.90;;;;;;5094305;28;20024;-80
2023/08/21 04:22:55;;;;;;;25.63;14.02;;;23.20;99.90;;;;;;5093153;28;20044;-79
2023/08/21 04:25:20;;;;;;;19.50;13.68;;;23.20;99.90;;;;;;5093127;28;20028;-78
2023/08/21 04:27:46;;;;;;;25.27;13.93;;;23.20;99.90;;;;;;5094731;28;20069;-79
2023/08/21 04:30:12;;;;;;;21.55;13.45;;;23.20;99.90;;;;;;5093725;28;20073;-80
2023/08/21 04:32:38;;;;;;;19.30;13.80;;;23.30;99.90;;;;;;5094305;28;20453;-79
2023/08/21 04:35:05;;;;;;;24.58;13.57;;;23.40;99.90;;;;;;5093289;28;20120;-79
2023/08/21 04:37:31;;;;;;;24.20;13.20;;;;;;;;;;5093216;28;20052;-80
2023/08/21 04:39:57;;;;;;;21.95;13.88;;;23.40;99.90;;;;;;5092921;28;20369;-80
2023/08/21 04:42:23;;;;;;;17.90;12.73;;;23.50;99.90;;;;;;5093000;28;20505;-80
2023/08/21 04:44:48;;;;;;;20.73;12.68;;;23.50;99.90;;;;;;5093160;28;20110;-79
2023/08/21 04:47:26;;;;;;;18.02;12.68;;;23.60;99.90;;;;;;5094024;28;20016;-79
2023/08/21 04:49:52;;;;;;;21.73;12.95;;;23.70;99.90;;;;;;5094122;28;20370;-79
2023/08/21 04:52:19;;;;;;;17.90;12.40;;;;;;;;;;5093985;28;20447;-81
2023/08/21 04:54:45;;;;;;;20.65;12.38;;;;;;;;;;5092919;28;20023;-80
2023/08/21 04:57:11;;;;;;;22.08;12.25;;;;;;;;;;5093715;28;20456;-79
2023/08/21 04:59:39;;;;;;;22.55;13.38;;;;;;;;;;5093969;28;20103;-80
2023/08/21 05:02:05;;;;;;;20.05;12.40;;;;;;;;;;5094034;28;20020;-79
2023/08/21 05:04:31;;;;;;;21.70;12.85;;;;;;;;;;5094062;28;20035;-80
2023/08/21 05:06:57;;;;;;;17.75;12.23;;;;;;;;;;5092834;28;20024;-80
2023/08/21 05:09:23;;;;;;;17.15;13.07;;;;;;;;;;5093857;28;20012;-79
2023/08/21 05:11:49;;;;;;;18.60;12.43;;;;;;;;;;5094303;28;20025;-79
2023/08/21 05:14:15;;;;;;;19.45;12.38;;;;;;;;;;5093416;28;20028;-80
2023/08/21 05:16:41;;;;;;;19.02;12.45;;;;;;;;;;5094317;28;20023;-78
2023/08/21 05:19:08;;;;;;;28.38;13.75;;;;;;;;;;5094217;28;20023;-80
2023/08/21 05:21:34;;;;;;;19.33;11.77;;;;;;;;;;5092443;28;20074;-80
2023/08/21 05:24:00;;;;;;;20.67;12.88;;;;;;;;;;5093868;28;20100;-80
2023/08/21 05:26:26;;;;;;;25.50;13.38;;;;;;;;;;5093621;28;20018;-80
2023/08/21 05:28:52;;;;;;;18.60;12.88;;;;;;;;;;5093361;28;20016;-79
2023/08/21 05:31:18;;;;;;;16.73;11.63;;;;;;;;;;5093741;28;20024;-79
2023/08/21 05:33:45;;;;;;;14.73;11.40;;;;;;;;;;5085228;28;20131;-80
2023/08/21 05:36:11;;;;;;;20.48;11.70;;;;;;;;;;5085230;28;20023;-78
2023/08/21 05:38:37;;;;;;;17.85;11.40;;;;;;;;;;5092005;28;20027;-79
2023/08/21 05:41:03;;;;;;;19.85;11.82;;;;;;;;;;5092386;28;20024;-81
2023/08/21 05:43:30;;;;;;;16.17;11.45;;;;;;;;;;5093351;28;20028;-80
2023/08/21 05:45:56;;;;;;;16.65;11.50;;;;;;;;;;5092459;28;20353;-81
2023/08/21 05:48:22;;;;;;;18.98;11.95;;;;;;;;;;5093834;28;20012;-81
2023/08/21 05:50:55;;;;;;;18.83;11.65;;;;;;;;;;5093160;28;20078;-80
2023/08/21 05:53:21;;;;;;;19.20;11.82;;;;;;;;;;5092187;28;20477;-81
2023/08/21 05:55:47;;;;;;;15.15;10.85;;;;;;;;;;5093643;28;20013;-81
2023/08/21 05:58:13;;;;;;;20.52;11.43;;;;;;;;;;5093319;28;20024;-81
2023/08/21 06:00:40;;;;;;;19.90;11.45;;;;;;;;;;5093620;28;20466;-78
2023/08/21 06:03:06;;;;;;;20.67;12.15;;;;;;;;;;5093065;28;20069;-78
2023/08/21 06:05:32;;;;;;;18.13;11.95;;;;;;;;;;5092158;28;20019;-79
2023/08/21 06:07:58;;;;;;;18.05;11.45;;;;;;;;;;5093667;28;20020;-82
2023/08/21 06:10:24;;;;;;;20.80;12.02;;;;;;;;;;5094129;28;20090;-79
2023/08/21 06:12:51;;;;;;;15.10;10.98;;;;;;;;;;5097033;28;20016;-81
2023/08/21 06:15:17;;;;;;;15.68;11.77;;;;;;;;;;5095943;28;20525;-81
2023/08/21 06:17:43;;;;;;;18.42;11.85;;;;;;;;;;5096664;28;20024;-80
2023/08/21 06:20:09;;;;;;;20.38;11.98;;;;;;;;;;5095834;28;20047;-82
2023/08/21 06:22:36;;;;;;;24.17;10.68;;;;;;;;;;5095484;28;20132;-81
2023/08/21 06:25:02;;;;;;;19.50;11.18;;;;;;;;;;5095750;28;20073;-83
2023/08/21 06:27:28;;;;;;;26.60;11.95;;;;;;;;;;5095750;28;20456;-83
2023/08/21 06:29:54;;;;;;;17.83;11.40;;;;;;;;;;5095620;28;20031;-82
2023/08/21 06:32:21;;;;;;;27.70;12.02;;;;;;;;;;5095006;28;20028;-80
2023/08/21 06:34:47;;;;;;;27.58;12.13;;;;;;;;;;5097130;28;20055;-83
2023/08/21 06:37:13;;;;;;;19.05;10.85;;;;;;;;;;5095551;28;20019;-81
2023/08/21 06:39:40;;;;;;;19.58;11.35;;;;;;;;;;5096497;28;20454;-80
2023/08/21 06:42:06;;;;;;;23.77;12.00;;;;;;;;;;5096311;28;20466;-81
2023/08/21 06:44:32;;;;;;;21.80;11.13;;;;;;;;;;5096751;28;20454;-83
2023/08/21 06:46:58;;;;;;;22.52;11.02;;;;;;;;;;5096382;28;20020;-79
2023/08/21 06:49:24;;;;;;;20.88;11.15;;;;;;;;;;5095416;28;20028;-82
2023/08/21 06:51:50;;;;;;;19.17;11.23;;;;;;;;;;5096598;28;20050;-83
2023/08/21 06:54:17;;;;;;;31.52;10.10;;;;;;;;;;5094961;28;20028;-81
2023/08/21 06:56:44;;;;;;;16.65;10.82;;;;;;;;;;5095254;28;20406;-81
2023/08/21 06:59:10;;;;;;;24.67;10.90;;;;;;;;;;5096352;28;20028;-82
2023/08/21 07:01:36;;;;;;;20.20;11.60;;;;;;;;;;5095190;28;20027;-81
2023/08/21 07:04:02;;;;;;;19.48;11.05;;;;;;;;;;5096443;28;20024;-82
2023/08/21 07:06:29;;;;;;;18.52;10.43;;;;;;;;;;5094719;28;20078;-84
2023/08/21 07:08:55;;;;;;;18.67;10.43;;;;;;;;;;5096326;28;20527;-81
2023/08/21 07:11:21;;;;;;;17.13;9.70;;;;;;;;;;5096147;28;20450;-81
2023/08/21 07:13:47;;;;;;;19.25;10.07;;;;;;;;;;5094760;28;20107;-82
2023/08/21 07:16:13;;;;;;;15.45;10.25;;;;;;;;;;5094659;28;20020;-84
2023/08/21 07:18:40;;;;;;;21.38;11.00;;;;;;;;;;5096246;28;20012;-83
2023/08/21 07:21:06;;;;;;;14.40;10.20;;;;;;;;;;5094519;28;20416;-86
2023/08/21 07:23:33;;;;;;;19.92;10.93;;;;;;;;;;5094537;28;20054;-82
2023/08/21 07:25:59;;;;;;;18.02;9.85;;;;;;;;;;5094717;28;20020;-84
2023/08/21 07:28:26;;;;;;;17.00;10.43;;;;;;;;;;5094118;28;20027;-83
2023/08/21 07:30:56;;;;;;;15.70;10.48;;;;;;;;;;5094704;28;20016;-83
2023/08/21 07:33:22;;;;;;;16.55;10.27;;;;;;;;;;5094599;28;20049;-86
2023/08/21 07:35:57;;;;;;;15.55;9.93;;;;;;;;;;5093039;28;20362;-84
2023/08/21 07:38:23;;;;;;;18.45;10.05;;;;;;;;;;5094629;28;20016;-85
2023/08/21 07:40:51;;;;;;;20.27;9.50;;;;;;;;;;5094429;28;20014;-86
2023/08/21 07:43:17;;;;;;;15.95;10.20;;;;;;;;;;5094154;28;20113;-83
2023/08/21 07:45:44;;;;;;;16.67;10.07;;;;;;;;;;5093696;28;20099;-85
2023/08/21 07:48:12;;;;;;;15.70;10.55;;;;;;;;;;5094638;28;20015;-85
2023/08/21 07:50:39;;;;;;;15.57;10.02;;;;;;;;;;5093739;28;20050;-82
2023/08/21 07:53:08;;;;;;;17.08;9.65;;;;;;;;;;5093956;28;20030;-83
2023/08/21 07:55:34;;;;;;;22.00;9.93;;;;;;;;;;5093799;28;20466;-84
2023/08/21 07:58:00;;;;;;;19.95;9.15;;;;;;;;;;5094110;28;20024;-86
2023/08/21 08:00:26;;;;;;;20.13;9.98;;;;;;;;;;5094267;28;20016;-84
2023/08/21 08:02:56;;;;;;;16.60;9.00;;;;;;;;;;5093930;28;20426;-84
2023/08/21 08:05:28;;;;;;;18.27;10.30;;;;;;;;;;5077733;28;20090;-86
2023/08/21 08:07:57;;;;;;;19.65;10.50;;;;;;;;;;5094094;28;20028;-85
2023/08/21 08:10:27;;;;;;;21.25;10.73;;;;;;;;;;5094009;28;20107;-84
2023/08/21 08:12:54;;;;;;;20.92;10.20;;;;;;;;;;5093923;28;20031;-86
2023/08/21 08:15:20;;;;;;;16.45;9.57;;;;;;;;;;5093789;28;20008;-84
2023/08/21 08:17:54;;;;;;;18.27;10.07;;;;;;;;;;5093590;28;20020;-88
2023/08/21 08:20:21;;;;;;;19.83;10.13;;;;;;;;;;5093178;28;20469;-82
2023/08/21 08:22:47;;;;;;;28.15;10.50;;;;;;;;;;5093354;28;20072;-81
2023/08/21 08:25:13;;;;;;;18.13;9.45;;;;;;;;;;5093237;28;20016;-82
2023/08/21 08:27:40;;;;;;;14.00;9.00;;;;;;;;;;5093529;28;20040;-85
2023/08/21 08:30:06;;;;;;;15.55;9.40;;;;;;;;;;5093113;28;20080;-83
2023/08/21 08:32:33;;;;;;;17.30;10.07;;;;;;;;;;5092945;28;20023;-82
2023/08/21 08:34:59;;;;;;;15.93;9.63;;;;;;;;;;5093329;28;20395;-82
2023/08/21 08:37:25;;;;;;;16.13;9.70;;;;;;;;;;5093573;28;20020;-83
2023/08/21 08:39:51;;;;;;;17.65;8.80;;;;;;;;;;5093477;28;20020;-83
2023/08/21 08:42:17;;;;;;;15.02;8.85;;;;;;;;;;5092920;28;20016;-83
2023/08/21 08:44:44;;;;;;;15.75;8.60;;;;;;;;;;5093136;28;20043;-81
2023/08/21 08:47:14;;;;;;;18.85;8.20;;;;;;;;;;5093174;28;20016;-84
2023/08/21 08:49:40;;;;;;;14.13;8.38;;;;;;;;;;5092839;28;20108;-83
2023/08/21 08:52:07;;;;;;;11.35;8.27;;;;;;;;;;5093074;28;20027;-84
2023/08/21 08:54:42;;;;;;;12.75;8.38;;;;;;;;;;5093102;28;20024;-85
2023/08/21 08:57:23;;;;;;;14.43;7.63;;;;;;;;;;5094460;28;20061;-86
2023/08/21 08:59:50;;;;;;;11.43;7.35;;;;;;;;;;5092898;28;20077;-83
2023/08/21 09:02:16;;;;;;;14.43;7.88;;;;;;;;;;5093649;28;20514;-81
2023/08/21 09:04:42;;;;;;;17.27;8.63;;;;;;;;;;5094127;28;20035;-83
2023/08/21 09:07:09;;;;;;;13.68;8.02;;;;;;;;;;5092944;28;20024;-83
2023/08/21 09:09:52;;;;;;;12.75;8.15;;;;;;;;;;5092425;28;20031;-85
2023/08/21 09:12:19;;;;;;;11.75;6.95;;;;;;;;;;5092123;28;20052;-81
2023/08/21 09:14:45;;;;;;;11.88;7.50;;;;;;;;;;5094121;28;20049;-83
2023/08/21 09:17:12;;;;;;;13.48;7.82;;;;;;;;;;5092275;28;20477;-80
2023/08/21 09:19:38;;;;;;;10.45;8.63;;;;;;;;;;5093932;28;20382;-82
2023/08/21 09:22:08;;;;;;;14.63;7.55;;;;;;;;;;5092719;28;20016;-80
2023/08/21 09:24:34;;;;;;;13.75;7.45;;;;;;;;;;5093710;28;20054;-84
2023/08/21 09:27:01;;;;;;;9.93;7.55;;;;;;;;;;5092709;28;20081;-80
2023/08/21 09:29:27;;;;;;;11.77;8.07;;;;;;;;;;5092998;28;20373;-80
2023/08/21 09:31:56;;;;;;;11.77;7.13;;;;;;;;;;5093363;28;20353;-82
2023/08/21 09:34:24;;;;;;;9.82;7.07;;;;;;;;;;5092619;28;20081;-81
2023/08/21 09:36:57;;;;;;;9.95;6.97;;;;;;;;;;5093356;28;20357;-79
2023/08/21 09:39:23;;;;;;;16.70;7.15;;;;;;;;;;5093582;28;20054;-82
2023/08/21 09:41:56;;;;;;;16.55;7.30;;;;;;;;;;5093651;28;20012;-81
2023/08/21 09:44:22;;;;;;;16.75;7.78;;;;;;;;;;5092881;28;20027;-82
2023/08/21 09:46:51;;;;;;;10.27;6.45;;;;;;;;;;5096809;28;20012;-80
2023/08/21 09:49:17;;;;;;;8.00;6.15;;;;;;;;;;5096610;28;20408;-80
2023/08/21 09:51:44;;;;;;;11.20;6.40;;;;;;;;;;5096226;28;20016;-80
2023/08/21 09:54:11;;;;;;;21.27;6.82;;;;;;;;;;5097381;28;20020;-81
2023/08/21 09:56:38;;;;;;;16.83;6.25;;;;;;;;;;5096484;28;20466;-81
2023/08/21 09:59:04;;;;;;;12.70;6.10;;;;;;;;;;5097389;28;20020;-81
2023/08/21 10:01:32;;;;;;;11.07;6.38;;;;;;;;;;5096188;28;20023;-84
2023/08/21 10:04:01;;;;;;;11.93;7.10;;;;;;;;;;5097596;28;20038;-81
2023/08/21 10:06:29;;;;;;;9.02;6.78;;;;;;;;;;5097570;28;20069;-81
2023/08/21 10:08:57;;;;;;;8.60;6.32;;;;;;;;;;5095907;28;20030;-82
2023/08/21 10:11:23;;;;;;;8.07;6.00;;;;;;;;;;5097162;28;20073;-81
2023/08/21 10:13:51;;;;;;;9.70;6.18;;;;;;;;;;5097044;28;20020;-83
2023/08/21 10:16:17;;;;;;;9.13;6.05;;;;;;;;;;5095941;28;20038;-81
2023/08/21 10:18:45;;;;;;;12.45;5.93;;;;;;;;;;5095431;28;20078;-81
2023/08/21 10:21:15;;;;;;;8.73;5.65;;;;;;;;;;5096926;28;20016;-80
2023/08/21 10:23:42;;;;;;;18.33;6.50;;;;;;;;;;5097240;28;20425;-83
2023/08/21 10:26:11;;;;;;;10.98;5.55;;;;;;;;;;5095529;28;20052;-82
2023/08/21 10:28:59;;;;;;;12.15;6.72;;;;;;;;;;5095833;28;20008;-81
2023/08/21 10:31:34;;;;;;;8.50;5.82;;;;;;;;;;5085784;28;20080;-81
2023/08/21 10:34:05;;;;;;;11.93;6.70;;;;;;;;;;5096176;28;20438;-82
2023/08/21 10:36:31;;;;;;;;;;;;;;;;;;5096114;28;20024;-81
2023/08/21 10:39:01;;;;;;;8.27;6.05;;;;;;;;;;5095653;28;19900;-81
2023/08/21 10:41:27;;;;;;;9.07;5.63;;;;;;;;;;5073164;28;20020;-81
2023/08/21 10:43:54;;;;;;;11.65;6.18;;;;;;;;;;5074315;28;20044;-81
2023/08/21 10:46:20;;;;;;;11.00;6.30;;;;;;;;;;5074151;28;20032;-82
2023/08/21 10:48:46;;;;;;;12.98;5.45;;;;;;;;;;5073888;28;20016;-82
2023/08/21 10:51:13;;;;;;;9.95;6.03;;;;;;;;;;5074247;28;20032;-82
2023/08/21 10:53:41;;;;;;;8.23;6.22;;;;;;;;;;5073803;28;20028;-82
2023/08/21 10:56:07;;;;;;;11.38;6.72;;;;;;;;;;5073407;28;20029;-82
2023/08/21 10:58:42;;;;;;;12.55;6.57;;;;;;;;;;5074326;28;20017;-82
2023/08/21 11:01:08;;;;;;;10.05;5.82;;;;;;;;;;5073372;28;20031;-81
2023/08/21 11:03:45;;;;;;;16.58;7.50;;;;;;;;;;5073968;28;20082;-85
2023/08/21 11:06:11;;;;;;;10.70;6.13;;;;;;;;;;5073810;28;20118;-81
2023/08/21 11:08:37;;;;;;;10.77;6.78;;;;;;;;;;5073508;28;20378;-83
2023/08/21 11:11:05;;;;;;;12.60;7.00;;;;;;;;;;5073735;28;20029;-83
2023/08/21 11:13:32;;;;;;;14.57;7.60;;;;;;;;;;5093830;28;20432;-82
2023/08/21 11:16:03;;;;;;;15.80;7.07;;;;;;;;;;5094584;28;20065;-84
2023/08/21 11:18:38;;;;;;;13.13;7.68;;;;;;;;;;5095241;28;20020;-82
2023/08/21 11:21:09;;;;;;;18.75;6.70;;;;;;;;;;5094831;28;20016;-81
2023/08/21 11:23:36;;;;;;;12.55;6.70;;;;;;;;;;5095886;28;20105;-83
2023/08/21 11:26:03;;;;;;;13.18;7.43;;;;;;;;;;5094732;28;20111;-84
2023/08/21 11:28:30;;;;;;;11.05;7.20;;;;;;;;;;5094881;28;20020;-82
2023/08/21 11:30:57;;;;;;;9.23;6.78;;;;;;;;;;5095512;28;20092;-81
2023/08/21 11:33:26;;;;;;;10.43;6.85;;;;;;;;;;5095478;28;20103;-85
2023/08/21 11:35:58;;;;;;;13.75;6.95;;;;;;;;;;5094276;28;20016;-85
2023/08/21 11:38:25;;;;;;;13.80;6.50;;;;;;;;;;5093733;28;20077;-84
2023/08/21 11:40:59;;;;;;;12.25;5.57;;;;;;;;;;5095309;28;20327;-82
2023/08/21 11:43:54;;;;;;;12.77;5.38;;;;;;;;;;5095656;28;20406;-84
2023/08/21 11:46:20;;;;;;;13.35;5.93;;;;;;;;;;5036088;28;20032;-83
2023/08/21 11:48:46;;;;;;;13.15;6.88;;;;;;;;;;5052954;28;20021;-83
2023/08/21 11:51:16;;;;;;;9.80;5.93;;;;;;;;;;5052420;28;20359;-82
2023/08/21 11:54:09;;;;;;;9.68;5.88;;;;;;;;;;5035993;28;20112;-91
2023/08/21 11:56:36;;;;;;;14.20;5.90;;;;;;;;;;5050576;28;20490;-84
2023/08/21 11:59:03;;;;;;;15.68;7.22;;;;;;;;;;5033914;28;20021;-82
2023/08/21 12:01:33;;;;;;;13.27;5.22;;;;;;;;;;5035924;28;20082;-80
2023/08/21 12:04:00;;;;;;;8.53;5.13;;;;;;;;;;5052490;28;20040;-85
2023/08/21 12:06:27;;;;;;;7.68;5.22;;;;;;;;;;5035990;28;20405;-83
2023/08/21 12:08:54;;;;;;;10.98;5.65;;;;;;;;;;5035518;28;20513;-83
2023/08/21 12:11:20;;;;;;;12.07;5.72;;;;;;;;;;5035519;28;20021;-83
2023/08/21 12:13:46;;;;;;;13.18;5.57;;;;;;;;;;5035685;28;20029;-83
2023/08/21 12:16:12;;;;;;;9.15;5.40;;;;;;;;;;5035773;28;20031;-84
2023/08/21 12:18:38;;;;;;;7.00;5.43;;;;;;;;;;5035492;28;20017;-85
2023/08/21 12:21:04;;;;;;;9.57;5.75;;;;;;;;;;5035363;28;20107;-88
2023/08/21 12:23:30;;;;;;;8.60;6.10;;;;;;;;;;5083094;28;20500;-82
2023/08/21 12:25:57;;;;;;;7.88;6.10;;;;;;;;;;5093307;28;20020;-83
2023/08/21 12:28:23;;;;;;;10.90;5.78;;;;;;;;;;5093514;28;20359;-87
2023/08/21 12:30:49;;;;;;;14.27;6.13;;;;;;;;;;5093528;28;20023;-84
2023/08/21 12:33:16;;;;;;;9.32;6.00;;;;;;;;;;5093072;28;20032;-85
2023/08/21 12:35:42;;;;;;;8.80;6.18;;;;;;;;;;5094722;28;20023;-86
2023/08/21 12:38:12;;;;;;;10.88;5.40;;;;;;;;;;5093570;28;20157;-85
2023/08/21 12:40:38;;;;;;;7.95;5.07;;;;;;;;;;5093217;28;20012;-85
2023/08/21 12:43:04;;;;;;;10.50;5.95;;;;;;;;;;5093319;28;20474;-87
2023/08/21 12:45:31;;;;;;;6.45;5.05;;;;;;;;;;5093203;28;20057;-87
2023/08/21 12:47:57;;;;;;;8.88;5.22;;;;;;;;;;5092854;28;20016;-85
2023/08/21 12:50:23;;;;;;;12.00;6.07;;;;;;;;;;5093216;28;20051;-86
2023/08/21 12:52:49;;;;;;;10.20;5.53;;;;;;;;;;5092751;28;20072;-84
2023/08/21 12:55:15;;;;;;;9.80;4.95;;;;;;;;;;5094084;28;20095;-84
2023/08/21 12:57:41;;;;;;;7.38;5.32;;;;;;;;;;5093197;28;20027;-86
2023/08/21 13:00:08;;;;;;;8.10;5.45;;;;;;;;;;5093763;28;20043;-84
2023/08/21 13:02:34;;;;;;;8.45;4.82;;;;;;;;;;5093267;28;20361;-85
2023/08/21 13:05:00;;;;;;;5.70;5.10;;;;;;;;;;5094185;28;20051;-84
2023/08/21 13:07:26;;;;;;;9.40;5.63;;;;;;;;;;5092556;28;20022;-84
2023/08/21 13:09:52;;;;;;;8.40;4.70;;;;;;;;;;5093028;28;20012;-84
2023/08/21 13:12:19;;;;;;;9.57;4.85;;;;;;;;;;5092929;28;20020;-86
2023/08/21 13:14:46;;;;;;;5.65;4.90;;;;;;;;;;5092553;28;20228;-85
2023/08/21 13:17:12;;;;;;;6.90;5.25;;;;;;;;;;5094105;28;20022;-85
2023/08/21 13:19:38;;;;;;;10.80;4.93;;;;;;;;;;5091117;28;20400;-86
2023/08/21 13:22:04;;;;;;;6.43;5.38;;;;;;;;;;5093591;28;20020;-83
2023/08/21 13:24:31;;;;;;;10.90;5.13;;;;;;;;;;5109509;28;20039;-86
2023/08/21 13:26:58;;;;;;;6.85;5.00;;;;;;;;;;5093008;28;20488;-84
2023/08/21 13:29:24;;;;;;;9.68;5.82;;;;;;;;;;5093244;28;20361;-86
2023/08/21 13:31:50;;;;;;;7.88;5.05;;;;;;;;;;5094122;28;20438;-85
2023/08/21 13:34:16;;;;;;;6.65;5.15;;;;;;;;;;5109803;28;20115;-87
2023/08/21 13:36:43;;;;;;;10.50;5.68;;;;;;;;;;5109457;28;20016;-86
2023/08/21 13:39:10;;;;;;;11.98;5.05;;;;;;;;;;5092846;28;20020;-86
2023/08/21 13:41:37;;;;;;;10.32;5.97;;;;;;;;;;5100728;28;20013;-84
2023/08/21 13:44:03;;;;;;;8.30;5.20;;;;;;;;;;5094988;28;20024;-86
2023/08/21 13:46:29;;;;;;;11.50;5.20;;;;;;;;;;5093860;28;20099;-87
2023/08/21 13:48:58;;;;;;;9.73;5.15;;;;;;;;;;5092310;28;20067;-89
2023/08/21 13:51:25;;;;;;;9.93;5.10;;;;;;;;;;5094123;28;20515;-85
2023/08/21 13:53:51;;;;;;;8.43;4.88;;;;;;;;;;5092704;28;20414;-87